createdAt,value
2023-03-01T00:01:33.715Z,74.52
2023-03-01T00:04:03.917Z,74.91
2023-03-01T00:06:34.608Z,74.58
2023-03-01T00:09:04.473Z,74.55
2023-03-01T00:11:36.067Z,74.86
2023-03-01T00:14:07.987Z,75.05
2023-03-01T00:16:42.387Z,74.48
2023-03-01T00:19:17.378Z,74.59
2023-03-01T00:21:47.325Z,74.90
2023-03-01T00:24:18.374Z,75.02
2023-03-01T00:26:48.351Z,74.52
2023-03-01T00:29:18.222Z,74.39
2023-03-01T00:31:50.888Z,74.57
2023-03-01T00:34:21.395Z,74.70
2023-03-01T00:36:51.278Z,74.99
2023-03-01T00:39:21.524Z,74.81
2023-03-01T00:41:51.734Z,75.18
2023-03-01T00:44:22.225Z,75.43
2023-03-01T00:46:55.746Z,75.06
2023-03-01T00:49:29.014Z,74.71
2023-03-01T00:52:00.001Z,74.31
2023-03-01T00:54:30.218Z,75.06
2023-03-01T00:57:00.130Z,74.81
2023-03-01T00:59:30.670Z,74.53
2023-03-01T01:02:03.117Z,74.81
2023-03-01T01:04:35.364Z,75.13
2023-03-01T01:07:11.153Z,74.95
2023-03-01T01:09:41.672Z,74.96
2023-03-01T01:12:12.613Z,74.95
2023-03-01T01:14:43.034Z,75.24
2023-03-01T01:17:15.819Z,74.96
2023-03-01T01:19:45.835Z,74.79
2023-03-01T01:22:15.873Z,75.09
2023-03-01T01:24:47.253Z,75.00
2023-03-01T01:27:17.272Z,74.68
2023-03-01T01:29:47.731Z,74.72
2023-03-01T01:32:21.029Z,74.53
2023-03-01T01:34:51.284Z,74.70
2023-03-01T01:37:21.157Z,74.64
2023-03-01T01:39:51.737Z,75.20
2023-03-01T01:42:22.530Z,74.61
2023-03-01T01:45:12.488Z,75.05
2023-03-01T01:47:44.980Z,74.37
2023-03-01T01:50:22.788Z,74.10
2023-03-01T01:52:56.000Z,74.48
2023-03-01T01:55:29.653Z,74.94
2023-03-01T01:58:05.232Z,74.77
2023-03-01T02:00:36.311Z,74.92
2023-03-01T02:03:15.288Z,74.55
2023-03-01T02:05:55.768Z,74.73
2023-03-01T02:08:31.499Z,74.92
2023-03-01T02:11:05.652Z,75.09
2023-03-01T02:13:37.382Z,74.91
2023-03-01T02:16:08.935Z,74.80
2023-03-01T02:18:43.458Z,74.84
2023-03-01T02:21:32.619Z,74.96
2023-03-01T02:24:14.622Z,74.65
2023-03-01T02:26:52.381Z,75.24
2023-03-01T02:29:27.877Z,74.92
2023-03-01T02:31:59.732Z,75.13
2023-03-01T02:34:32.544Z,74.96
2023-03-01T02:37:08.022Z,74.74
2023-03-01T02:39:49.312Z,75.25
2023-03-01T02:42:27.348Z,75.43
2023-03-01T02:45:00.251Z,75.06
2023-03-01T02:47:30.717Z,74.90
2023-03-01T02:50:01.096Z,75.24
2023-03-01T02:52:45.261Z,74.82
2023-03-01T02:55:18.738Z,75.01
2023-03-01T02:57:52.413Z,75.00
2023-03-01T03:00:30.321Z,75.27
2023-03-01T03:03:01.194Z,75.27
2023-03-01T03:05:34.448Z,74.74
2023-03-01T03:08:08.707Z,74.77
2023-03-01T03:10:44.373Z,74.56
2023-03-01T03:13:18.142Z,74.10
2023-03-01T03:15:51.080Z,74.60
2023-03-01T03:18:21.635Z,74.72
2023-03-01T03:20:56.551Z,74.61
2023-03-01T03:23:26.949Z,74.65
2023-03-01T03:25:56.747Z,75.10
2023-03-01T03:28:26.637Z,74.81
2023-03-01T03:30:59.446Z,74.50
2023-03-01T03:33:29.689Z,74.66
2023-03-01T03:35:59.565Z,74.03
2023-03-01T03:38:29.514Z,74.30
2023-03-01T03:41:06.196Z,74.51
2023-03-01T03:43:38.672Z,74.80
2023-03-01T03:46:11.508Z,73.97
2023-03-01T03:48:45.007Z,73.73
2023-03-01T03:51:17.302Z,73.96
2023-03-01T03:53:48.216Z,74.10
2023-03-01T03:56:18.753Z,74.33
2023-03-01T03:58:48.582Z,74.65
2023-03-01T04:01:21.543Z,74.45
2023-03-01T04:03:55.475Z,74.23
2023-03-01T04:06:25.710Z,73.57
2023-03-01T04:09:01.511Z,73.95
2023-03-01T04:11:31.588Z,74.35
2023-03-01T04:14:05.474Z,74.21
2023-03-01T04:16:37.990Z,74.47
2023-03-01T04:19:08.073Z,74.34
2023-03-01T04:21:38.171Z,74.69
2023-03-01T04:24:09.972Z,74.22
2023-03-01T04:26:40.275Z,74.10
2023-03-01T04:29:10.294Z,74.21
2023-03-01T04:31:43.222Z,73.75
2023-03-01T04:34:15.161Z,74.11
2023-03-01T04:36:45.144Z,74.22
2023-03-01T04:39:15.820Z,74.30
2023-03-01T04:41:46.952Z,74.68
2023-03-01T04:44:17.181Z,74.56
2023-03-01T04:46:53.153Z,75.00
2023-03-01T04:49:23.462Z,75.27
2023-03-01T04:51:53.335Z,75.21
2023-03-01T04:54:23.281Z,74.57
2023-03-01T04:56:53.536Z,74.93
2023-03-01T04:59:24.558Z,74.92
2023-03-01T05:02:01.461Z,75.03
2023-03-01T05:04:31.470Z,75.39
2023-03-01T05:07:02.435Z,75.44
2023-03-01T05:09:32.220Z,75.81
2023-03-01T05:12:02.183Z,76.05
2023-03-01T05:14:33.140Z,75.74
2023-03-01T05:17:06.802Z,75.02
2023-03-01T05:19:36.895Z,74.98
2023-03-01T05:22:07.445Z,74.98
2023-03-01T05:24:41.868Z,74.74
2023-03-01T05:27:12.315Z,72.71
2023-03-01T05:29:42.348Z,74.86
2023-03-01T05:32:16.805Z,73.53
2023-03-01T05:34:47.424Z,74.52
2023-03-01T05:37:20.692Z,75.89
2023-03-01T05:39:51.446Z,75.76
2023-03-01T05:42:22.059Z,75.41
2023-03-01T05:44:54.932Z,75.21
2023-03-01T05:47:27.607Z,75.02
2023-03-01T05:49:57.790Z,72.83
2023-03-01T05:52:28.027Z,67.36
2023-03-01T05:54:58.371Z,72.38
2023-03-01T05:57:28.822Z,74.26
2023-03-01T05:59:59.447Z,74.77
2023-03-01T06:02:31.978Z,74.96
2023-03-01T06:05:02.880Z,75.57
2023-03-01T06:07:33.333Z,75.48
2023-03-01T06:10:03.199Z,75.78
2023-03-01T06:12:35.229Z,75.09
2023-03-01T06:15:06.255Z,76.03
2023-03-01T06:17:42.013Z,75.84
2023-03-01T06:20:15.970Z,75.95
2023-03-01T06:22:47.782Z,76.34
2023-03-01T06:25:20.970Z,76.24
2023-03-01T06:27:53.306Z,76.42
2023-03-01T06:30:26.036Z,76.70
2023-03-01T06:33:02.696Z,76.35
2023-03-01T06:35:34.463Z,76.78
2023-03-01T06:38:07.867Z,76.79
2023-03-01T06:40:38.762Z,76.68
2023-03-01T06:43:09.413Z,76.90
2023-03-01T06:45:40.468Z,76.53
2023-03-01T06:48:13.842Z,76.66
2023-03-01T06:50:43.847Z,76.62
2023-03-01T06:53:14.624Z,76.60
2023-03-01T06:55:44.581Z,75.91
2023-03-01T06:58:15.400Z,76.35
2023-03-01T07:00:48.289Z,76.49
2023-03-01T07:03:21.854Z,75.90
2023-03-01T07:05:53.921Z,76.21
2023-03-01T07:08:24.335Z,76.28
2023-03-01T07:10:59.656Z,76.73
2023-03-01T07:13:29.636Z,76.56
2023-03-01T07:16:00.247Z,76.50
2023-03-01T07:18:32.709Z,76.52
2023-03-01T07:21:08.530Z,76.42
2023-03-01T07:23:39.191Z,76.50
2023-03-01T07:26:10.623Z,76.10
2023-03-01T07:28:40.964Z,76.10
2023-03-01T07:31:10.965Z,75.58
2023-03-01T07:33:44.312Z,75.45
2023-03-01T07:36:15.167Z,75.71
2023-03-01T07:38:45.206Z,75.97
2023-03-01T07:41:16.200Z,75.81
2023-03-01T07:43:46.705Z,75.95
2023-03-01T07:46:17.450Z,75.47
2023-03-01T07:48:51.166Z,75.81
2023-03-01T07:51:22.271Z,75.61
2023-03-01T07:53:54.146Z,75.25
2023-03-01T07:56:25.205Z,75.87
2023-03-01T07:58:55.299Z,75.59
2023-03-01T08:01:26.269Z,75.46
2023-03-01T08:04:01.806Z,75.61
2023-03-01T08:06:32.503Z,75.41
2023-03-01T08:09:04.123Z,75.80
2023-03-01T08:11:34.383Z,76.46
2023-03-01T08:14:05.314Z,76.82
2023-03-01T08:16:37.114Z,74.73
2023-03-01T08:19:12.165Z,73.32
2023-03-01T08:21:42.353Z,73.40
2023-03-01T08:24:14.412Z,73.84
2023-03-01T08:26:45.394Z,73.80
2023-03-01T08:29:16.624Z,73.70
2023-03-01T08:31:46.652Z,73.88
2023-03-01T08:34:21.755Z,73.11
2023-03-01T08:36:52.852Z,73.55
2023-03-01T08:39:24.958Z,73.68
2023-03-01T08:41:55.106Z,73.07
2023-03-01T08:44:26.725Z,72.34
2023-03-01T08:46:57.913Z,72.79
2023-03-01T08:49:31.044Z,72.28
2023-03-01T08:52:02.849Z,72.23
2023-03-01T08:54:33.492Z,71.55
2023-03-01T08:57:05.737Z,71.70
2023-03-01T08:59:38.877Z,71.32
2023-03-01T09:02:16.177Z,71.83
2023-03-01T09:04:49.945Z,70.94
2023-03-01T09:07:20.973Z,70.67
2023-03-01T09:09:54.998Z,70.58
2023-03-01T09:12:26.679Z,71.38
2023-03-01T09:14:57.355Z,70.65
2023-03-01T09:17:29.773Z,70.71
2023-03-01T09:20:06.839Z,70.78
2023-03-01T09:22:38.049Z,70.73
2023-03-01T09:25:09.434Z,70.05
2023-03-01T09:27:39.419Z,69.75
2023-03-01T09:30:11.985Z,70.05
2023-03-01T09:32:43.750Z,70.35
2023-03-01T09:35:16.794Z,69.96
2023-03-01T09:37:46.691Z,70.44
2023-03-01T09:40:22.654Z,69.89
2023-03-01T09:43:04.852Z,69.84
2023-03-01T09:45:42.492Z,69.34
2023-03-01T09:48:23.654Z,69.54
2023-03-01T09:50:57.445Z,68.85
2023-03-01T09:53:36.592Z,68.81
2023-03-01T09:56:20.562Z,69.73
2023-03-01T09:59:01.112Z,69.76
2023-03-01T10:01:36.895Z,69.18
2023-03-01T10:04:32.798Z,68.56
2023-03-01T10:07:28.227Z,68.10
2023-03-01T10:09:59.465Z,68.02
2023-03-01T10:12:38.741Z,68.10
2023-03-01T10:15:15.946Z,68.80
2023-03-01T10:17:55.659Z,67.81
2023-03-01T10:20:30.500Z,69.01
2023-03-01T10:23:05.166Z,69.16
2023-03-01T10:25:52.019Z,68.38
2023-03-01T10:28:35.014Z,68.70
2023-03-01T10:31:10.075Z,68.08
2023-03-01T10:33:43.787Z,68.43
2023-03-01T10:36:13.901Z,66.84
2023-03-01T10:38:59.412Z,67.86
2023-03-01T10:41:32.008Z,67.38
2023-03-01T10:44:04.236Z,64.76
2023-03-01T10:46:37.293Z,65.54
2023-03-01T10:49:19.456Z,65.42
2023-03-01T10:51:53.770Z,64.73
2023-03-01T10:54:32.535Z,59.69
2023-03-01T10:57:07.340Z,53.47
2023-03-01T10:59:40.904Z,49.70
2023-03-01T11:02:25.907Z,49.64
2023-03-01T11:05:05.885Z,49.20
2023-03-01T11:07:51.892Z,51.24
2023-03-01T11:10:28.571Z,50.03
2023-03-01T11:13:12.283Z,50.59
2023-03-01T11:15:43.641Z,53.21
2023-03-01T11:18:33.907Z,54.81
2023-03-01T11:21:12.419Z,54.88
2023-03-01T11:23:46.218Z,53.29
2023-03-01T11:26:21.278Z,54.59
2023-03-01T11:28:59.498Z,53.75
2023-03-01T11:31:33.439Z,55.70
2023-03-01T11:34:14.686Z,57.34
2023-03-01T11:36:54.080Z,56.45
2023-03-01T11:39:34.872Z,57.25
2023-03-01T11:42:19.364Z,57.66
2023-03-01T11:44:56.753Z,58.21
2023-03-01T11:47:44.298Z,56.27
2023-03-01T11:50:27.622Z,56.96
2023-03-01T11:53:31.473Z,55.38
2023-03-01T11:56:14.592Z,55.52
2023-03-01T11:59:12.717Z,54.50
2023-03-01T12:02:06.030Z,54.48
2023-03-01T12:05:00.367Z,54.19
2023-03-01T12:07:43.504Z,53.27
2023-03-01T12:10:30.496Z,53.88
2023-03-01T12:13:23.370Z,53.46
2023-03-01T12:16:38.756Z,54.30
2023-03-01T12:19:33.615Z,54.72
2023-03-01T12:22:21.528Z,54.64
2023-03-01T12:25:13.494Z,55.37
2023-03-01T12:28:10.663Z,54.89
2023-03-01T12:31:04.026Z,55.08
2023-03-01T12:33:53.714Z,56.07
2023-03-01T12:36:50.722Z,55.33
2023-03-01T12:39:40.525Z,56.08
2023-03-01T12:42:22.866Z,56.02
2023-03-01T12:45:20.146Z,56.44
2023-03-01T12:48:12.324Z,56.42
2023-03-01T12:50:50.081Z,56.58
2023-03-01T12:53:28.273Z,57.14
2023-03-01T12:56:04.517Z,56.24
2023-03-01T12:58:49.309Z,56.65
2023-03-01T13:01:30.312Z,57.73
2023-03-01T13:04:28.929Z,57.20
2023-03-01T13:07:28.169Z,57.16
2023-03-01T13:10:16.185Z,57.22
2023-03-01T13:12:54.688Z,57.73
2023-03-01T13:15:33.955Z,58.03
2023-03-01T13:18:06.123Z,58.32
2023-03-01T13:20:50.729Z,58.51
2023-03-01T13:23:34.454Z,57.88
2023-03-01T13:26:09.341Z,58.40
2023-03-01T13:28:52.133Z,58.53
2023-03-01T13:32:07.785Z,58.68
2023-03-01T13:34:49.277Z,58.79
2023-03-01T13:37:37.462Z,58.58
2023-03-01T13:40:46.640Z,58.45
2023-03-01T13:43:35.810Z,58.34
2023-03-01T13:46:13.527Z,59.17
2023-03-01T13:48:44.691Z,58.93
2023-03-01T13:51:16.349Z,58.17
2023-03-01T13:53:50.731Z,59.14
2023-03-01T13:56:30.554Z,59.22
2023-03-01T13:59:06.334Z,59.73
2023-03-01T14:01:41.116Z,59.78
2023-03-01T14:04:26.705Z,59.55
2023-03-01T14:07:13.469Z,59.46
2023-03-01T14:09:49.240Z,59.54
2023-03-01T14:12:37.968Z,59.55
2023-03-01T14:15:18.584Z,59.73
2023-03-01T14:17:59.798Z,59.37
2023-03-01T14:20:33.745Z,60.31
2023-03-01T14:23:12.538Z,59.52
2023-03-01T14:25:52.361Z,58.95
2023-03-01T14:28:31.740Z,59.97
2023-03-01T14:31:04.417Z,59.17
2023-03-01T14:33:37.296Z,59.39
2023-03-01T14:36:11.094Z,59.24
2023-03-01T14:38:43.646Z,59.72
2023-03-01T14:41:17.744Z,59.73
2023-03-01T14:43:56.952Z,60.78
2023-03-01T14:46:33.611Z,59.63
2023-03-01T14:49:08.286Z,59.06
2023-03-01T14:51:43.062Z,57.95
2023-03-01T14:54:27.293Z,59.22
2023-03-01T14:57:02.865Z,57.80
2023-03-01T14:59:38.098Z,58.62
2023-03-01T15:02:18.308Z,58.67
2023-03-01T15:04:52.410Z,58.71
2023-03-01T15:07:23.481Z,59.23
2023-03-01T15:09:54.016Z,59.73
2023-03-01T15:12:45.017Z,59.08
2023-03-01T15:15:41.588Z,59.67
2023-03-01T15:18:21.696Z,59.41
2023-03-01T15:20:54.217Z,59.49
2023-03-01T15:23:27.883Z,59.96
2023-03-01T15:26:00.288Z,60.13
2023-03-01T15:28:34.780Z,59.85
2023-03-01T15:31:23.928Z,60.67
2023-03-01T15:33:55.396Z,60.60
2023-03-01T15:36:45.373Z,60.57
2023-03-01T15:39:38.582Z,60.82
2023-03-01T15:42:13.067Z,61.14
2023-03-01T15:44:46.284Z,61.28
2023-03-01T15:47:35.913Z,62.03
2023-03-01T15:50:06.893Z,61.63
2023-03-01T15:52:43.526Z,62.25
2023-03-01T15:55:21.434Z,62.17
2023-03-01T15:57:52.333Z,62.21
2023-03-01T16:00:23.944Z,63.38
2023-03-01T16:02:56.515Z,62.82
2023-03-01T16:05:29.721Z,62.92
2023-03-01T16:07:59.717Z,63.31
2023-03-01T16:10:29.719Z,63.46
2023-03-01T16:12:59.932Z,63.48
2023-03-01T16:15:33.343Z,64.06
2023-03-01T16:18:07.342Z,63.99
2023-03-01T16:20:38.379Z,64.33
2023-03-01T16:23:11.208Z,64.37
2023-03-01T16:25:41.277Z,64.81
2023-03-01T16:28:12.223Z,64.91
2023-03-01T16:30:43.163Z,65.11
2023-03-01T16:33:28.368Z,65.57
2023-03-01T16:36:03.506Z,65.31
2023-03-01T16:38:35.958Z,65.79
2023-03-01T16:41:06.696Z,66.45
2023-03-01T16:43:37.265Z,66.45
2023-03-01T16:46:14.793Z,66.66
2023-03-01T16:48:48.049Z,66.52
2023-03-01T16:51:19.173Z,66.86
2023-03-01T16:53:49.220Z,66.65
2023-03-01T16:56:21.127Z,67.49
2023-03-01T16:58:51.624Z,67.46
2023-03-01T17:01:24.507Z,67.72
2023-03-01T17:03:57.421Z,68.43
2023-03-01T17:06:27.761Z,68.33
2023-03-01T17:08:58.190Z,68.64
2023-03-01T17:11:28.515Z,68.94
2023-03-01T17:13:58.605Z,68.83
2023-03-01T17:16:28.727Z,69.38
2023-03-01T17:19:01.973Z,69.76
2023-03-01T17:21:32.277Z,70.10
2023-03-01T17:24:02.739Z,70.81
2023-03-01T17:26:33.178Z,70.67
2023-03-01T17:29:03.965Z,70.57
2023-03-01T17:31:34.559Z,71.50
2023-03-01T17:34:07.406Z,71.13
2023-03-01T17:36:44.708Z,70.82
2023-03-01T17:39:15.003Z,71.39
2023-03-01T17:41:45.325Z,72.18
2023-03-01T17:44:15.394Z,72.39
2023-03-01T17:46:45.405Z,71.86
2023-03-01T17:49:18.347Z,71.92
2023-03-01T17:51:48.396Z,71.63
2023-03-01T17:54:18.282Z,72.60
2023-03-01T17:56:48.112Z,72.45
2023-03-01T17:59:19.588Z,72.74
2023-03-01T18:01:50.055Z,73.06
2023-03-01T18:04:25.914Z,73.93
2023-03-01T18:06:56.242Z,74.26
2023-03-01T18:09:26.461Z,74.59
2023-03-01T18:11:56.823Z,75.32
2023-03-01T18:14:29.841Z,75.00
2023-03-01T18:17:00.145Z,75.38
2023-03-01T18:19:32.695Z,75.23
2023-03-01T18:22:02.712Z,75.02
2023-03-01T18:24:32.832Z,75.45
2023-03-01T18:27:03.191Z,75.53
2023-03-01T18:29:33.644Z,76.00
2023-03-01T18:32:04.050Z,76.38
2023-03-01T18:34:36.624Z,76.67
2023-03-01T18:37:09.450Z,76.93
2023-03-01T18:39:41.729Z,77.04
2023-03-01T18:42:12.095Z,76.71
2023-03-01T18:44:42.832Z,76.93
2023-03-01T18:47:12.695Z,77.24
2023-03-01T18:49:45.423Z,77.63
2023-03-01T18:52:15.322Z,77.82
2023-03-01T18:54:45.263Z,78.23
2023-03-01T18:57:15.707Z,77.73
2023-03-01T18:59:45.658Z,78.48
2023-03-01T19:02:16.166Z,78.97
2023-03-01T19:04:49.737Z,78.97
2023-03-01T19:07:20.513Z,79.35
2023-03-01T19:09:51.060Z,79.59
2023-03-01T19:12:22.698Z,79.79
2023-03-01T19:14:53.046Z,80.38
2023-03-01T19:17:24.777Z,80.08
2023-03-01T19:19:57.244Z,80.19
2023-03-01T19:22:27.462Z,80.40
2023-03-01T19:24:58.470Z,80.39
2023-03-01T19:27:28.441Z,80.55
2023-03-01T19:29:58.325Z,80.66
2023-03-01T19:32:28.274Z,80.62
2023-03-01T19:35:00.932Z,80.16
2023-03-01T19:37:31.181Z,80.41
2023-03-01T19:40:01.357Z,80.42
2023-03-01T19:42:31.294Z,80.33
2023-03-01T19:45:01.299Z,81.34
2023-03-01T19:47:31.279Z,81.31
2023-03-01T19:50:03.910Z,81.31
2023-03-01T19:52:33.943Z,81.56
2023-03-01T19:55:09.314Z,81.48
2023-03-01T19:57:39.846Z,81.50
2023-03-01T20:00:11.593Z,82.30
2023-03-01T20:02:44.547Z,82.26
2023-03-01T20:05:17.441Z,82.35
2023-03-01T20:07:47.345Z,82.10
2023-03-01T20:10:17.193Z,82.01
2023-03-01T20:12:47.134Z,84.16
2023-03-01T20:15:17.685Z,83.83
2023-03-01T20:17:47.546Z,83.73
2023-03-01T20:20:20.402Z,83.35
2023-03-01T20:22:51.080Z,83.06
2023-03-01T20:25:21.200Z,83.43
2023-03-01T20:27:52.060Z,84.25
2023-03-01T20:30:21.990Z,84.44
2023-03-01T20:32:53.931Z,84.63
2023-03-01T20:35:26.498Z,84.83
2023-03-01T20:37:56.512Z,85.42
2023-03-01T20:40:29.229Z,85.70
2023-03-01T20:43:01.850Z,85.23
2023-03-01T20:45:32.271Z,86.01
2023-03-01T20:48:04.288Z,86.02
2023-03-01T20:50:37.086Z,84.87
2023-03-01T20:53:07.334Z,85.53
2023-03-01T20:55:37.282Z,86.25
2023-03-01T20:58:07.249Z,85.64
2023-03-01T21:00:37.592Z,85.87
2023-03-01T21:03:08.200Z,86.24
2023-03-01T21:05:40.651Z,85.83
2023-03-01T21:08:10.496Z,85.67
2023-03-01T21:10:40.575Z,85.95
2023-03-01T21:13:11.522Z,85.47
2023-03-01T21:15:41.776Z,85.28
2023-03-01T21:18:12.020Z,85.24
2023-03-01T21:20:45.110Z,85.10
2023-03-01T21:23:15.026Z,84.86
2023-03-01T21:25:45.465Z,84.83
2023-03-01T21:28:15.287Z,84.83
2023-03-01T21:30:45.087Z,84.26
2023-03-01T21:33:15.320Z,83.83
2023-03-01T21:35:47.865Z,83.67
2023-03-01T21:38:17.941Z,83.74
2023-03-01T21:40:48.293Z,83.61
2023-03-01T21:43:18.613Z,83.48
2023-03-01T21:45:48.962Z,83.43
2023-03-01T21:48:18.829Z,83.67
2023-03-01T21:50:57.493Z,83.59
2023-03-01T21:53:28.756Z,83.94
2023-03-01T21:55:58.857Z,83.85
2023-03-01T21:58:31.578Z,83.68
2023-03-01T22:01:10.019Z,83.78
2023-03-01T22:03:45.393Z,83.33
2023-03-01T22:06:23.066Z,83.52
2023-03-01T22:08:56.388Z,83.98
2023-03-01T22:11:28.337Z,84.04
2023-03-01T22:13:59.910Z,84.02
2023-03-01T22:16:33.650Z,84.09
2023-03-01T22:19:04.043Z,84.00
2023-03-01T22:21:36.737Z,84.01
2023-03-01T22:24:08.005Z,84.37
2023-03-01T22:26:40.858Z,84.54
2023-03-01T22:29:14.032Z,84.24
2023-03-01T22:31:44.721Z,84.26
2023-03-01T22:34:17.336Z,84.71
2023-03-01T22:36:50.149Z,84.80
2023-03-01T22:39:23.261Z,84.52
2023-03-01T22:41:53.459Z,85.29
2023-03-01T22:44:25.417Z,85.16
2023-03-01T22:46:55.572Z,85.69
2023-03-01T22:49:25.824Z,86.14
2023-03-01T22:52:00.386Z,85.98
2023-03-01T22:54:31.316Z,86.82
2023-03-01T22:57:01.438Z,87.09
2023-03-01T22:59:31.205Z,87.35
2023-03-01T23:02:01.877Z,87.53
2023-03-01T23:04:31.806Z,87.54
2023-03-01T23:07:04.347Z,88.10
2023-03-01T23:09:37.015Z,88.09
2023-03-01T23:12:09.785Z,89.20
2023-03-01T23:14:41.371Z,88.79
2023-03-01T23:17:13.005Z,88.32
2023-03-01T23:19:43.237Z,88.33
2023-03-01T23:22:16.651Z,88.17
2023-03-01T23:24:47.705Z,88.21
2023-03-01T23:27:19.452Z,88.34
2023-03-01T23:29:49.570Z,87.97
2023-03-01T23:32:20.545Z,88.04
2023-03-01T23:34:50.622Z,88.16
2023-03-01T23:37:23.332Z,88.04
2023-03-01T23:39:53.642Z,88.22
2023-03-01T23:42:23.731Z,88.07
2023-03-01T23:44:54.234Z,88.30
2023-03-01T23:47:27.347Z,88.21
2023-03-01T23:50:02.188Z,88.30
2023-03-01T23:52:41.855Z,87.92
2023-03-01T23:55:15.700Z,88.18
2023-03-01T23:57:46.683Z,88.39
